createdAt,value
2023-04-16T00:01:25.745Z,92.24
2023-04-16T00:03:52.489Z,92.87
2023-04-16T00:06:19.199Z,92.66
2023-04-16T00:08:45.755Z,92.73
2023-04-16T00:11:12.321Z,92.82
2023-04-16T00:13:38.838Z,92.72
2023-04-16T00:16:05.602Z,92.91
2023-04-16T00:18:32.112Z,92.92
2023-04-16T00:20:59.539Z,92.94
2023-04-16T00:23:26.023Z,93.10
2023-04-16T00:25:53.743Z,93.04
2023-04-16T00:28:20.517Z,93.70
2023-04-16T00:30:47.113Z,93.67
2023-04-16T00:33:13.599Z,93.45
2023-04-16T00:35:40.237Z,93.35
2023-04-16T00:38:06.754Z,93.12
2023-04-16T00:40:33.245Z,93.95
2023-04-16T00:42:59.877Z,93.83
2023-04-16T00:45:26.357Z,93.67
2023-04-16T00:47:52.889Z,93.37
2023-04-16T00:50:19.572Z,93.55
2023-04-16T00:52:47.555Z,93.56
2023-04-16T00:55:15.120Z,93.04
2023-04-16T00:57:41.631Z,92.93
2023-04-16T01:00:08.671Z,93.12
2023-04-16T01:02:35.264Z,93.82
2023-04-16T01:05:02.291Z,93.70
2023-04-16T01:07:28.992Z,93.79
2023-04-16T01:09:56.277Z,94.37
2023-04-16T01:12:22.949Z,94.44
2023-04-16T01:14:49.380Z,94.03
2023-04-16T01:17:15.839Z,93.77
2023-04-16T01:19:43.055Z,94.07
2023-04-16T01:22:09.558Z,94.35
2023-04-16T01:24:36.505Z,94.29
2023-04-16T01:27:03.113Z,94.57
2023-04-16T01:29:29.616Z,94.28
2023-04-16T01:31:56.114Z,94.29
2023-04-16T01:34:23.987Z,93.80
2023-04-16T01:36:51.080Z,93.94
2023-04-16T01:39:19.340Z,93.78
2023-04-16T01:41:45.871Z,94.00
2023-04-16T01:44:12.360Z,94.13
2023-04-16T01:46:38.894Z,94.16
2023-04-16T01:49:06.073Z,93.91
2023-04-16T01:51:32.756Z,94.15
2023-04-16T01:53:59.250Z,94.45
2023-04-16T01:56:26.310Z,93.47
2023-04-16T01:58:53.126Z,93.15
2023-04-16T02:01:19.661Z,93.40
2023-04-16T02:03:46.441Z,93.27
2023-04-16T02:06:13.032Z,93.07
2023-04-16T02:08:39.559Z,93.48
2023-04-16T02:11:06.035Z,93.33
2023-04-16T02:13:32.521Z,93.63
2023-04-16T02:15:59.220Z,94.55
2023-04-16T02:18:25.800Z,94.40
2023-04-16T02:20:52.269Z,94.77
2023-04-16T02:23:18.764Z,94.16
2023-04-16T02:25:46.407Z,94.59
2023-04-16T02:28:14.664Z,94.36
2023-04-16T02:30:41.147Z,93.58
2023-04-16T02:33:08.515Z,93.63
2023-04-16T02:35:35.329Z,93.37
2023-04-16T02:38:02.024Z,93.88
2023-04-16T02:40:29.005Z,93.01
2023-04-16T02:42:55.720Z,93.08
2023-04-16T02:45:22.303Z,92.69
2023-04-16T02:47:49.245Z,93.32
2023-04-16T02:50:16.086Z,93.36
2023-04-16T02:52:42.637Z,93.52
2023-04-16T02:55:10.188Z,93.21
2023-04-16T02:57:36.701Z,93.49
2023-04-16T03:00:04.995Z,93.44
2023-04-16T03:02:31.914Z,94.25
2023-04-16T03:04:58.453Z,93.76
2023-04-16T03:07:24.982Z,94.45
2023-04-16T03:09:51.800Z,93.87
2023-04-16T03:12:18.244Z,93.46
2023-04-16T03:14:44.720Z,94.18
2023-04-16T03:17:11.611Z,93.74
2023-04-16T03:19:38.063Z,93.51
2023-04-16T03:22:04.671Z,94.21
2023-04-16T03:24:31.239Z,94.75
2023-04-16T03:26:58.382Z,95.35
2023-04-16T03:29:26.751Z,95.97
2023-04-16T03:31:53.364Z,95.80
2023-04-16T03:34:19.914Z,95.93
2023-04-16T03:36:46.406Z,96.35
2023-04-16T03:39:13.009Z,95.99
2023-04-16T03:41:39.489Z,95.80
2023-04-16T03:44:06.193Z,96.34
2023-04-16T03:46:32.807Z,96.29
2023-04-16T03:48:59.304Z,95.58
2023-04-16T03:51:26.423Z,95.88
2023-04-16T03:53:53.140Z,95.88
2023-04-16T03:56:19.665Z,96.16
2023-04-16T03:58:46.148Z,96.67
2023-04-16T04:01:12.689Z,96.44
2023-04-16T04:03:39.399Z,96.40
2023-04-16T04:06:09.307Z,96.56
2023-04-16T04:08:35.819Z,97.04
2023-04-16T04:11:02.283Z,97.08
2023-04-16T04:13:28.776Z,97.24
2023-04-16T04:15:55.344Z,96.67
2023-04-16T04:18:21.909Z,96.97
2023-04-16T04:20:48.393Z,96.58
2023-04-16T04:23:14.914Z,96.68
2023-04-16T04:25:41.421Z,96.63
2023-04-16T04:28:07.893Z,96.63
2023-04-16T04:30:35.827Z,96.83
2023-04-16T04:33:02.376Z,96.48
2023-04-16T04:35:28.917Z,96.96
2023-04-16T04:37:55.735Z,96.35
2023-04-16T04:40:22.264Z,96.81
2023-04-16T04:42:48.863Z,96.29
2023-04-16T04:45:15.914Z,96.12
2023-04-16T04:47:42.397Z,96.11
2023-04-16T04:50:09.390Z,95.45
2023-04-16T04:52:35.902Z,95.67
2023-04-16T04:55:02.347Z,94.85
2023-04-16T04:57:28.808Z,95.38
2023-04-16T04:59:55.481Z,94.94
2023-04-16T05:02:22.058Z,94.87
2023-04-16T05:04:48.618Z,94.57
2023-04-16T05:07:15.509Z,94.93
2023-04-16T05:09:41.968Z,94.46
2023-04-16T05:12:08.530Z,94.14
2023-04-16T05:14:36.172Z,93.79
2023-04-16T05:17:02.881Z,94.28
2023-04-16T05:19:29.457Z,94.16
2023-04-16T05:21:56.209Z,93.69
2023-04-16T05:24:22.678Z,93.44
2023-04-16T05:26:49.180Z,93.18
2023-04-16T05:29:15.928Z,93.60
2023-04-16T05:31:42.412Z,93.87
2023-04-16T05:34:08.868Z,93.72
2023-04-16T05:36:35.459Z,94.15
2023-04-16T05:39:01.966Z,93.67
2023-04-16T05:41:28.405Z,92.97
2023-04-16T05:43:54.931Z,93.73
2023-04-16T05:46:21.451Z,93.30
2023-04-16T05:48:47.953Z,91.95
2023-04-16T05:51:14.463Z,92.04
2023-04-16T05:53:40.972Z,92.12
2023-04-16T05:56:07.844Z,92.35
2023-04-16T05:58:34.384Z,91.78
2023-04-16T06:01:01.204Z,91.37
2023-04-16T06:03:28.012Z,89.71
2023-04-16T06:05:54.672Z,90.58
2023-04-16T06:08:21.269Z,90.05
2023-04-16T06:10:47.747Z,90.99
2023-04-16T06:13:14.502Z,90.56
2023-04-16T06:15:40.979Z,90.01
2023-04-16T06:18:07.541Z,89.00
2023-04-16T06:20:34.110Z,89.22
2023-04-16T06:23:00.745Z,88.44
2023-04-16T06:25:27.256Z,88.64
2023-04-16T06:27:53.798Z,88.53
2023-04-16T06:30:20.536Z,87.88
2023-04-16T06:32:47.126Z,87.42
2023-04-16T06:35:13.848Z,86.74
2023-04-16T06:37:40.537Z,86.39
2023-04-16T06:40:07.569Z,86.35
2023-04-16T06:42:34.085Z,85.71
2023-04-16T06:45:00.590Z,86.15
2023-04-16T06:47:27.362Z,85.98
2023-04-16T06:49:53.898Z,86.05
2023-04-16T06:52:20.437Z,85.51
2023-04-16T06:54:47.979Z,83.63
2023-04-16T06:57:14.545Z,85.14
2023-04-16T06:59:41.004Z,83.27
2023-04-16T07:02:09.186Z,84.06
2023-04-16T07:04:35.893Z,82.52
2023-04-16T07:07:02.362Z,83.09
2023-04-16T07:09:28.847Z,81.63
2023-04-16T07:11:55.675Z,83.53
2023-04-16T07:14:22.141Z,82.30
2023-04-16T07:16:48.682Z,82.11
2023-04-16T07:19:15.302Z,81.39
2023-04-16T07:21:44.499Z,83.18
2023-04-16T07:24:14.105Z,83.27
2023-04-16T07:26:40.661Z,82.73
2023-04-16T07:29:07.224Z,82.96
2023-04-16T07:31:33.836Z,83.86
2023-04-16T07:34:00.659Z,84.27
2023-04-16T07:36:28.331Z,85.25
2023-04-16T07:38:54.818Z,84.80
2023-04-16T07:41:21.357Z,83.84
2023-04-16T07:43:47.838Z,84.51
2023-04-16T07:46:14.388Z,85.28
2023-04-16T07:48:41.266Z,85.16
2023-04-16T07:51:07.766Z,84.30
2023-04-16T07:53:34.234Z,83.31
2023-04-16T07:56:00.779Z,83.21
2023-04-16T07:58:27.272Z,82.75
2023-04-16T08:00:53.752Z,81.24
2023-04-16T08:03:20.376Z,81.50
2023-04-16T08:05:46.991Z,81.21
2023-04-16T08:08:13.469Z,81.22
2023-04-16T08:10:39.983Z,83.73
2023-04-16T08:13:06.514Z,84.73
2023-04-16T08:15:33.029Z,84.83
2023-04-16T08:17:59.852Z,84.91
2023-04-16T08:20:26.460Z,83.80
2023-04-16T08:22:53.795Z,84.62
2023-04-16T08:25:21.086Z,84.53
2023-04-16T08:27:47.565Z,84.59
2023-04-16T08:30:15.116Z,83.77
2023-04-16T08:32:41.674Z,84.61
2023-04-16T08:35:08.672Z,83.66
2023-04-16T08:37:35.362Z,83.48
2023-04-16T08:40:02.510Z,83.28
2023-04-16T08:42:40.604Z,82.45
2023-04-16T08:45:08.915Z,82.05
2023-04-16T08:47:36.845Z,83.14
2023-04-16T08:50:04.761Z,81.63
2023-04-16T08:52:31.366Z,80.76
2023-04-16T08:55:05.323Z,81.43
2023-04-16T08:57:39.853Z,81.80
2023-04-16T09:00:07.817Z,83.06
2023-04-16T09:02:34.785Z,80.85
2023-04-16T09:05:01.549Z,81.95
2023-04-16T09:07:29.034Z,79.20
2023-04-16T09:09:55.674Z,79.23
2023-04-16T09:12:24.054Z,78.86
2023-04-16T09:14:50.996Z,78.20
2023-04-16T09:17:18.422Z,76.70
2023-04-16T09:19:47.997Z,75.82
2023-04-16T09:22:14.635Z,76.14
2023-04-16T09:24:41.919Z,75.65
2023-04-16T09:27:08.779Z,77.14
2023-04-16T09:29:36.394Z,75.39
2023-04-16T09:32:04.370Z,78.35
2023-04-16T09:34:33.323Z,78.54
2023-04-16T09:37:16.720Z,74.70
2023-04-16T09:39:54.206Z,77.31
2023-04-16T09:42:36.905Z,77.97
2023-04-16T09:45:05.692Z,75.14
2023-04-16T09:47:43.386Z,73.46
2023-04-16T09:50:12.682Z,74.29
2023-04-16T09:52:39.725Z,74.43
2023-04-16T09:55:06.420Z,76.73
2023-04-16T09:57:32.999Z,75.69
2023-04-16T10:00:08.886Z,75.63
2023-04-16T10:02:35.983Z,75.55
2023-04-16T10:05:03.177Z,76.08
2023-04-16T10:07:29.880Z,74.28
2023-04-16T10:09:56.401Z,73.84
2023-04-16T10:12:23.042Z,75.59
2023-04-16T10:14:50.411Z,74.69
2023-04-16T10:17:17.252Z,74.76
2023-04-16T10:19:43.715Z,71.67
2023-04-16T10:22:11.004Z,70.97
2023-04-16T10:24:37.618Z,69.71
2023-04-16T10:27:04.102Z,71.00
2023-04-16T10:29:31.404Z,70.57
2023-04-16T10:31:58.025Z,69.39
2023-04-16T10:34:24.683Z,69.68
2023-04-16T10:36:52.875Z,68.87
2023-04-16T10:39:21.371Z,67.75
2023-04-16T10:41:47.943Z,67.55
2023-04-16T10:44:16.543Z,66.58
2023-04-16T10:46:43.861Z,70.02
2023-04-16T10:49:20.387Z,69.43
2023-04-16T10:52:00.221Z,70.15
2023-04-16T10:54:27.738Z,70.85
2023-04-16T10:56:56.322Z,71.15
2023-04-16T10:59:23.710Z,69.28
2023-04-16T11:01:52.180Z,70.18
2023-04-16T11:04:22.205Z,68.25
2023-04-16T11:07:07.333Z,68.83
2023-04-16T11:10:02.165Z,70.38
2023-04-16T11:12:35.855Z,69.61
2023-04-16T11:15:03.951Z,68.11
2023-04-16T11:17:47.270Z,68.65
2023-04-16T11:20:19.770Z,68.73
2023-04-16T11:22:47.141Z,67.54
2023-04-16T11:25:13.636Z,68.28
2023-04-16T11:27:40.997Z,66.67
2023-04-16T11:30:11.271Z,66.27
2023-04-16T11:32:38.436Z,65.49
2023-04-16T11:35:15.871Z,64.94
2023-04-16T11:37:42.414Z,65.21
2023-04-16T11:40:12.417Z,68.50
2023-04-16T11:42:43.349Z,63.07
2023-04-16T11:45:11.027Z,63.89
2023-04-16T11:47:47.313Z,61.79
2023-04-16T11:50:17.806Z,65.21
2023-04-16T11:52:44.294Z,65.96
2023-04-16T11:55:10.928Z,68.02
2023-04-16T11:57:38.230Z,68.38
2023-04-16T12:00:11.348Z,69.69
2023-04-16T12:02:41.703Z,66.95
2023-04-16T12:05:26.985Z,66.57
2023-04-16T12:07:53.453Z,65.93
2023-04-16T12:10:19.923Z,66.98
2023-04-16T12:12:46.499Z,65.08
2023-04-16T12:15:12.972Z,66.60
2023-04-16T12:17:39.475Z,63.37
2023-04-16T12:20:11.039Z,64.49
2023-04-16T12:22:43.935Z,64.68
2023-04-16T12:25:17.270Z,68.36
2023-04-16T12:27:51.333Z,67.16
2023-04-16T12:30:20.697Z,67.56
2023-04-16T12:32:48.786Z,68.21
2023-04-16T12:35:32.576Z,67.79
2023-04-16T12:37:59.398Z,67.63
2023-04-16T12:40:26.037Z,66.73
2023-04-16T12:42:52.556Z,66.04
2023-04-16T12:45:19.118Z,68.85
2023-04-16T12:47:46.130Z,63.45
2023-04-16T12:50:12.995Z,64.79
2023-04-16T12:52:39.517Z,63.54
2023-04-16T12:55:06.632Z,62.69
2023-04-16T12:57:33.150Z,62.80
2023-04-16T12:59:59.642Z,65.68
2023-04-16T13:02:26.266Z,63.53
2023-04-16T13:04:53.240Z,65.10
2023-04-16T13:07:19.895Z,65.57
2023-04-16T13:09:46.457Z,65.93
2023-04-16T13:12:13.005Z,65.94
2023-04-16T13:14:39.528Z,67.65
2023-04-16T13:17:06.113Z,66.85
2023-04-16T13:19:32.654Z,68.57
2023-04-16T13:21:59.178Z,67.86
2023-04-16T13:24:25.801Z,68.01
2023-04-16T13:26:52.556Z,70.42
2023-04-16T13:29:19.749Z,69.39
2023-04-16T13:31:46.693Z,70.13
2023-04-16T13:34:13.275Z,70.03
2023-04-16T13:36:40.268Z,68.08
2023-04-16T13:39:11.239Z,66.13
2023-04-16T13:41:38.680Z,67.71
2023-04-16T13:44:05.577Z,69.65
2023-04-16T13:46:32.156Z,68.09
2023-04-16T13:48:58.713Z,68.97
2023-04-16T13:51:25.281Z,70.01
2023-04-16T13:53:51.756Z,69.20
2023-04-16T13:56:18.917Z,70.46
2023-04-16T13:58:45.384Z,72.50
2023-04-16T14:01:12.268Z,70.22
2023-04-16T14:03:40.592Z,71.24
2023-04-16T14:06:07.161Z,71.57
2023-04-16T14:08:33.714Z,70.54
2023-04-16T14:11:00.655Z,69.39
2023-04-16T14:13:27.108Z,71.50
2023-04-16T14:15:54.106Z,69.21
2023-04-16T14:18:20.734Z,67.51
2023-04-16T14:20:47.592Z,68.16
2023-04-16T14:23:14.178Z,70.45
2023-04-16T14:25:40.905Z,71.58
2023-04-16T14:28:08.775Z,70.89
2023-04-16T14:30:35.339Z,70.37
2023-04-16T14:33:01.996Z,68.93
2023-04-16T14:35:28.528Z,67.45
2023-04-16T14:37:55.000Z,68.58
2023-04-16T14:40:21.501Z,67.53
2023-04-16T14:42:48.003Z,65.26
2023-04-16T14:45:14.499Z,64.31
2023-04-16T14:47:46.202Z,66.64
2023-04-16T14:50:12.949Z,64.96
2023-04-16T14:52:39.711Z,63.78
2023-04-16T14:55:07.002Z,61.62
2023-04-16T14:57:33.514Z,65.07
2023-04-16T15:00:00.009Z,62.72
2023-04-16T15:02:26.860Z,66.81
2023-04-16T15:04:53.467Z,63.88
2023-04-16T15:07:19.967Z,67.26
2023-04-16T15:09:46.530Z,66.02
2023-04-16T15:12:13.076Z,67.05
2023-04-16T15:14:39.557Z,66.30
2023-04-16T15:17:06.456Z,65.86
2023-04-16T15:19:33.065Z,67.69
2023-04-16T15:21:59.577Z,67.45
2023-04-16T15:24:26.280Z,67.18
2023-04-16T15:26:52.817Z,67.55
2023-04-16T15:29:19.317Z,66.59
2023-04-16T15:31:45.836Z,66.46
2023-04-16T15:34:12.578Z,67.13
2023-04-16T15:36:39.268Z,67.38
2023-04-16T15:39:05.771Z,67.27
2023-04-16T15:41:32.246Z,69.36
2023-04-16T15:43:58.743Z,69.45
2023-04-16T15:46:25.290Z,70.27
2023-04-16T15:48:51.801Z,69.83
2023-04-16T15:51:18.299Z,70.50
2023-04-16T15:53:46.116Z,69.74
2023-04-16T15:56:12.607Z,70.13
2023-04-16T15:58:39.106Z,70.58
2023-04-16T16:01:05.630Z,70.89
2023-04-16T16:03:33.867Z,70.37
2023-04-16T16:06:01.617Z,71.68
2023-04-16T16:08:29.540Z,71.89
2023-04-16T16:10:56.636Z,72.11
2023-04-16T16:13:23.226Z,71.88
2023-04-16T16:15:50.963Z,71.69
2023-04-16T16:18:17.502Z,71.24
2023-04-16T16:20:44.039Z,72.56
2023-04-16T16:23:10.883Z,72.87
2023-04-16T16:25:37.436Z,72.50
2023-04-16T16:28:06.519Z,72.02
2023-04-16T16:30:33.322Z,71.76
2023-04-16T16:32:59.840Z,72.54
2023-04-16T16:35:26.347Z,71.01
2023-04-16T16:37:55.737Z,70.45
2023-04-16T16:40:22.309Z,71.36
2023-04-16T16:42:48.820Z,72.27
2023-04-16T16:45:15.686Z,73.87
2023-04-16T16:47:42.175Z,71.40
2023-04-16T16:50:11.308Z,71.99
2023-04-16T16:52:38.901Z,72.71
2023-04-16T16:55:08.560Z,71.83
2023-04-16T16:57:35.040Z,73.39
2023-04-16T17:00:01.690Z,74.19
2023-04-16T17:02:28.264Z,75.00
2023-04-16T17:04:54.912Z,73.89
2023-04-16T17:07:21.474Z,72.75
2023-04-16T17:09:47.929Z,73.19
2023-04-16T17:12:14.442Z,73.53
2023-04-16T17:14:41.240Z,74.59
2023-04-16T17:17:07.761Z,72.35
2023-04-16T17:19:34.267Z,73.30
2023-04-16T17:22:00.989Z,73.91
2023-04-16T17:24:27.457Z,75.99
2023-04-16T17:26:54.026Z,75.67
2023-04-16T17:29:25.918Z,78.00
2023-04-16T17:31:53.269Z,78.22
2023-04-16T17:34:20.984Z,79.47
2023-04-16T17:36:47.521Z,79.98
2023-04-16T17:39:14.585Z,79.41
2023-04-16T17:41:41.072Z,78.04
2023-04-16T17:44:09.338Z,78.78
2023-04-16T17:46:37.080Z,79.37
2023-04-16T17:49:03.636Z,80.23
2023-04-16T17:51:31.099Z,79.97
2023-04-16T17:53:57.596Z,80.34
2023-04-16T17:56:24.145Z,82.47
2023-04-16T17:58:50.783Z,83.11
2023-04-16T18:01:17.229Z,83.55
2023-04-16T18:03:44.423Z,84.08
2023-04-16T18:06:11.618Z,84.50
2023-04-16T18:08:38.168Z,84.63
2023-04-16T18:11:08.354Z,84.52
2023-04-16T18:13:35.417Z,85.58
2023-04-16T18:16:02.497Z,87.11
2023-04-16T18:18:29.034Z,86.64
2023-04-16T18:20:55.813Z,86.32
2023-04-16T18:23:22.328Z,86.24
2023-04-16T18:25:48.976Z,86.55
2023-04-16T18:28:15.613Z,86.95
2023-04-16T18:30:42.802Z,86.46
2023-04-16T18:33:30.600Z,86.71
2023-04-16T18:35:55.937Z,88.08
2023-04-16T18:38:22.699Z,86.98
2023-04-16T18:40:49.776Z,88.06
2023-04-16T18:43:16.489Z,89.25
2023-04-16T18:45:42.946Z,89.68
2023-04-16T18:48:09.442Z,90.13
2023-04-16T18:50:36.060Z,89.46
2023-04-16T18:53:02.680Z,89.34
2023-04-16T18:55:30.230Z,90.63
2023-04-16T18:57:56.995Z,90.31
2023-04-16T19:00:23.536Z,90.01
2023-04-16T19:02:50.276Z,91.38
2023-04-16T19:05:17.001Z,90.90
2023-04-16T19:07:43.492Z,90.50
2023-04-16T19:10:10.156Z,92.25
2023-04-16T19:12:36.951Z,93.19
2023-04-16T19:15:04.362Z,93.53
2023-04-16T19:17:30.886Z,93.44
2023-04-16T19:19:57.591Z,92.51
2023-04-16T19:22:24.123Z,91.86
2023-04-16T19:24:50.580Z,92.20
2023-04-16T19:27:17.072Z,91.25
2023-04-16T19:29:43.595Z,92.89
2023-04-16T19:32:10.235Z,92.70
2023-04-16T19:34:36.784Z,92.17
2023-04-16T19:37:03.252Z,92.54
2023-04-16T19:39:29.792Z,92.69
2023-04-16T19:41:56.379Z,92.94
2023-04-16T19:44:23.222Z,92.98
2023-04-16T19:46:49.688Z,92.55
2023-04-16T19:49:16.224Z,92.14
2023-04-16T19:51:42.677Z,92.15
2023-04-16T19:54:09.155Z,92.33
2023-04-16T19:56:35.854Z,91.62
2023-04-16T19:59:02.532Z,91.27
2023-04-16T20:01:30.776Z,91.20
2023-04-16T20:03:57.389Z,91.56
2023-04-16T20:06:24.237Z,91.01
2023-04-16T20:08:50.726Z,90.91
2023-04-16T20:11:17.680Z,90.73
2023-04-16T20:13:47.711Z,90.77
2023-04-16T20:16:14.508Z,92.61
2023-04-16T20:18:44.035Z,92.88
2023-04-16T20:21:10.866Z,92.79
2023-04-16T20:23:37.413Z,92.96
2023-04-16T20:26:04.473Z,92.97
2023-04-16T20:28:30.989Z,92.97
2023-04-16T20:30:57.515Z,91.92
2023-04-16T20:33:24.389Z,92.54
2023-04-16T20:35:52.168Z,92.77
2023-04-16T20:38:23.734Z,92.58
2023-04-16T20:40:58.179Z,92.98
2023-04-16T20:43:25.982Z,94.17
2023-04-16T20:45:52.458Z,93.58
2023-04-16T20:48:18.973Z,93.61
2023-04-16T20:50:45.529Z,92.91
2023-04-16T20:53:12.959Z,92.96
2023-04-16T20:55:39.562Z,92.50
2023-04-16T20:58:06.461Z,92.14
2023-04-16T21:00:32.998Z,92.53
2023-04-16T21:02:59.708Z,92.15
2023-04-16T21:05:26.492Z,92.38
2023-04-16T21:07:55.391Z,92.77
2023-04-16T21:10:22.396Z,92.74
2023-04-16T21:12:48.948Z,93.01
2023-04-16T21:15:15.575Z,92.73
2023-04-16T21:17:42.179Z,91.99
2023-04-16T21:20:13.412Z,92.61
2023-04-16T21:22:39.926Z,92.37
2023-04-16T21:25:07.152Z,92.13
2023-04-16T21:27:33.604Z,92.70
2023-04-16T21:30:00.067Z,92.07
2023-04-16T21:32:26.599Z,92.40
2023-04-16T21:34:53.119Z,92.15
2023-04-16T21:37:19.565Z,92.36
2023-04-16T21:39:46.176Z,91.99
2023-04-16T21:42:12.626Z,91.70
2023-04-16T21:44:39.109Z,92.15
2023-04-16T21:47:05.797Z,92.33
2023-04-16T21:49:32.360Z,92.00
2023-04-16T21:51:59.226Z,92.71
2023-04-16T21:54:25.832Z,92.01
2023-04-16T21:56:52.320Z,91.90
2023-04-16T21:59:18.790Z,90.87
2023-04-16T22:01:45.365Z,91.56
2023-04-16T22:04:12.206Z,91.17
2023-04-16T22:06:38.745Z,91.00
2023-04-16T22:09:05.331Z,91.06
2023-04-16T22:11:31.831Z,92.50
2023-04-16T22:13:58.285Z,92.36
2023-04-16T22:16:24.908Z,92.06
2023-04-16T22:18:51.496Z,93.69
2023-04-16T22:21:18.067Z,94.19
2023-04-16T22:23:45.262Z,93.18
2023-04-16T22:26:12.751Z,93.58
2023-04-16T22:28:39.200Z,92.28
2023-04-16T22:31:05.801Z,93.71
2023-04-16T22:33:32.307Z,93.35
2023-04-16T22:35:59.828Z,95.46
2023-04-16T22:38:26.336Z,94.63
2023-04-16T22:40:52.803Z,95.51
2023-04-16T22:43:19.264Z,95.84
2023-04-16T22:45:46.389Z,95.68
2023-04-16T22:48:13.044Z,95.38
2023-04-16T22:50:40.608Z,95.72
2023-04-16T22:53:07.134Z,96.57
2023-04-16T22:55:33.605Z,96.60
2023-04-16T22:58:00.351Z,96.83
2023-04-16T23:00:27.292Z,96.78
2023-04-16T23:02:53.894Z,97.18
2023-04-16T23:05:20.528Z,96.88
2023-04-16T23:07:47.028Z,96.54
2023-04-16T23:10:13.507Z,96.38
2023-04-16T23:12:40.120Z,96.36
2023-04-16T23:15:07.093Z,96.64
2023-04-16T23:17:33.832Z,96.17
2023-04-16T23:20:00.476Z,95.75
2023-04-16T23:22:26.980Z,95.90
2023-04-16T23:24:53.563Z,95.53
2023-04-16T23:27:20.084Z,95.05
2023-04-16T23:29:46.656Z,96.31
2023-04-16T23:32:13.160Z,96.48
2023-04-16T23:34:39.625Z,96.21
2023-04-16T23:37:06.637Z,96.99
2023-04-16T23:39:33.146Z,97.34
2023-04-16T23:41:59.606Z,97.03
2023-04-16T23:44:26.116Z,97.02
2023-04-16T23:46:52.630Z,97.49
2023-04-16T23:49:19.258Z,97.43
2023-04-16T23:51:45.800Z,97.93
2023-04-16T23:54:12.252Z,97.36
2023-04-16T23:56:38.740Z,97.04
2023-04-16T23:59:05.525Z,96.04
